createdAt,value
2016-05-18T00:00:48.994Z,1010.44
2016-05-18T00:01:48.965Z,1010.41
2016-05-18T00:02:48.906Z,1010.38
2016-05-18T00:03:51.861Z,1010.42
2016-05-18T00:04:48.817Z,1010.41
2016-05-18T00:05:48.758Z,1010.39
2016-05-18T00:06:48.713Z,1010.38
2016-05-18T00:07:49.122Z,1010.29
2016-05-18T00:08:51.812Z,1010.36
2016-05-18T00:09:48.565Z,1010.36
2016-05-18T00:10:48.521Z,1010.34
2016-05-18T00:11:51.477Z,1010.36
2016-05-18T00:12:48.416Z,1010.35
2016-05-18T00:13:48.373Z,1010.33
2016-05-18T00:14:51.344Z,1010.3
2016-05-18T00:15:48.268Z,1010.34
2016-05-18T00:16:48.224Z,1010.27
2016-05-18T00:17:48.180Z,1010.27
2016-05-18T00:18:51.137Z,1010.24
2016-05-18T00:19:48.092Z,1010.27
2016-05-18T00:20:51.048Z,1010.23
2016-05-18T00:21:47.987Z,1010.24
2016-05-18T00:22:48.147Z,1010.24
2016-05-18T00:23:47.900Z,1010.25
2016-05-18T00:24:47.839Z,1010.24
2016-05-18T00:25:47.796Z,1010.2
2016-05-18T00:26:50.767Z,1010.25
2016-05-18T00:27:47.706Z,1010.22
2016-05-18T00:28:47.647Z,1010.19
2016-05-18T00:29:47.603Z,1010.19
2016-05-18T00:30:47.747Z,1010.14
2016-05-18T00:31:47.514Z,1010.15
2016-05-18T00:32:50.456Z,1010.16
2016-05-18T00:33:47.614Z,1010.14
2016-05-18T00:34:47.366Z,1010.14
2016-05-18T00:35:47.322Z,1010.15
2016-05-18T00:36:47.263Z,1010.09
2016-05-18T00:37:47.218Z,1010.12
2016-05-18T00:38:50.175Z,1010.07
2016-05-18T00:39:50.333Z,1010.07
2016-05-18T00:40:47.070Z,1010.08
2016-05-18T00:41:47.027Z,1010.04
2016-05-18T00:42:46.982Z,1010.04
2016-05-18T00:43:46.921Z,1010.1
2016-05-18T00:44:46.878Z,1010.06
2016-05-18T00:45:49.834Z,1010.07
2016-05-18T00:46:49.790Z,1010
2016-05-18T00:47:49.745Z,1010.04
2016-05-18T00:48:46.685Z,1010.02
2016-05-18T00:49:46.640Z,1010.04
2016-05-18T00:50:46.582Z,1009.98
2016-05-18T00:51:46.537Z,1009.98
2016-05-18T00:52:46.493Z,1010.01
2016-05-18T00:53:46.652Z,1009.95
2016-05-18T00:54:46.404Z,1009.95
2016-05-18T00:55:46.345Z,1009.94
2016-05-18T00:56:46.300Z,1009.92
2016-05-18T00:57:46.256Z,1009.95
2016-05-18T00:58:49.228Z,1009.93
2016-05-18T00:59:49.168Z,1009.91
2016-05-18T01:00:49.124Z,1009.9
2016-05-18T01:01:49.064Z,1009.86
2016-05-18T01:02:46.020Z,1009.89
2016-05-18T01:03:45.960Z,1009.85
2016-05-18T01:04:45.916Z,1009.82
2016-05-18T01:05:48.872Z,1009.82
2016-05-18T01:06:48.828Z,1009.8
2016-05-18T01:07:48.830Z,1009.81
2016-05-18T01:08:45.724Z,1009.8
2016-05-18T01:09:45.680Z,1009.82
2016-05-18T01:10:45.619Z,1009.81
2016-05-18T01:11:45.575Z,1009.81
2016-05-18T01:12:45.546Z,1009.8
2016-05-18T01:13:45.488Z,1009.82
2016-05-18T01:14:48.443Z,1009.79
2016-05-18T01:15:45.382Z,1009.78
2016-05-18T01:16:45.542Z,1009.79
2016-05-18T01:17:45.295Z,1009.76
2016-05-18T01:18:45.235Z,1009.75
2016-05-18T01:19:45.221Z,1009.77
2016-05-18T01:20:48.163Z,1009.73
2016-05-18T01:21:45.102Z,1009.72
2016-05-18T01:22:45.043Z,1009.72
2016-05-18T01:23:45.014Z,1009.73
2016-05-18T01:24:44.953Z,1009.73
2016-05-18T01:25:47.910Z,1009.72
2016-05-18T01:26:44.850Z,1009.72
2016-05-18T01:27:44.806Z,1009.72
2016-05-18T01:28:44.762Z,1009.76
2016-05-18T01:29:44.717Z,1009.75
2016-05-18T01:30:44.658Z,1009.75
2016-05-18T01:31:44.613Z,1009.73
2016-05-18T01:32:47.570Z,1009.73
2016-05-18T01:33:44.509Z,1009.74
2016-05-18T01:34:44.466Z,1009.71
2016-05-18T01:35:44.421Z,1009.73
2016-05-18T01:36:44.361Z,1009.66
2016-05-18T01:37:47.849Z,1009.64
2016-05-18T01:38:44.272Z,1009.63
2016-05-18T01:39:44.229Z,1009.63
2016-05-18T01:40:47.185Z,1009.62
2016-05-18T01:41:47.141Z,1009.59
2016-05-18T01:42:44.080Z,1009.63
2016-05-18T01:43:44.036Z,1009.64
2016-05-18T01:44:43.993Z,1009.66
2016-05-18T01:45:46.948Z,1009.6
2016-05-18T01:46:46.904Z,1009.63
2016-05-18T01:47:44.047Z,1009.61
2016-05-18T01:48:43.800Z,1009.61
2016-05-18T01:49:43.756Z,1009.6
2016-05-18T01:50:43.899Z,1009.53
2016-05-18T01:51:43.854Z,1009.55
2016-05-18T01:52:43.607Z,1009.53
2016-05-18T01:53:43.548Z,1009.55
2016-05-18T01:54:43.503Z,1009.54
2016-05-18T01:55:43.459Z,1009.54
2016-05-18T01:56:43.415Z,1009.52
2016-05-18T01:57:43.371Z,1009.46
2016-05-18T01:58:43.311Z,1009.48
2016-05-18T01:59:43.267Z,1009.42
2016-05-18T02:00:43.207Z,1009.47
2016-05-18T02:01:43.163Z,1009.41
2016-05-18T02:02:43.120Z,1009.45
2016-05-18T02:03:43.075Z,1009.41
2016-05-18T02:04:43.217Z,1009.41
2016-05-18T02:05:46.189Z,1009.36
2016-05-18T02:06:42.927Z,1009.37
2016-05-18T02:07:42.991Z,1009.36
2016-05-18T02:08:42.838Z,1009.37
2016-05-18T02:09:42.778Z,1009.32
2016-05-18T02:10:42.733Z,1009.32
2016-05-18T02:11:42.691Z,1009.31
2016-05-18T02:12:42.646Z,1009.26
2016-05-18T02:13:42.601Z,1009.29
2016-05-18T02:14:45.558Z,1009.27
2016-05-18T02:15:42.701Z,1009.26
2016-05-18T02:16:42.454Z,1009.21
2016-05-18T02:17:42.393Z,1009.2
2016-05-18T02:18:42.349Z,1009.21
2016-05-18T02:19:42.305Z,1009.18
2016-05-18T02:20:42.245Z,1009.19
2016-05-18T02:21:42.404Z,1009.15
2016-05-18T02:22:42.157Z,1009.15
2016-05-18T02:23:42.113Z,1009.08
2016-05-18T02:24:42.053Z,1009.14
2016-05-18T02:25:42.009Z,1009.09
2016-05-18T02:26:41.965Z,1009.07
2016-05-18T02:27:41.904Z,1009.08
2016-05-18T02:28:41.861Z,1009.03
2016-05-18T02:29:42.019Z,1009.07
2016-05-18T02:30:41.773Z,1009.01
2016-05-18T02:31:41.712Z,1009.02
2016-05-18T02:32:41.684Z,1009.06
2016-05-18T02:33:44.624Z,1009.06
2016-05-18T02:34:41.580Z,1009.01
2016-05-18T02:35:44.536Z,1009.02
2016-05-18T02:36:41.476Z,1009.01
2016-05-18T02:37:41.431Z,1009.01
2016-05-18T02:38:41.388Z,1009.02
2016-05-18T02:39:41.328Z,1008.98
2016-05-18T02:40:44.299Z,1009.01
2016-05-18T02:41:44.255Z,1008.97
2016-05-18T02:42:41.195Z,1008.99
2016-05-18T02:43:41.135Z,1008.97
2016-05-18T02:44:41.091Z,1008.98
2016-05-18T02:45:44.046Z,1008.94
2016-05-18T02:46:41.206Z,1008.92
2016-05-18T02:47:40.943Z,1008.95
2016-05-18T02:48:40.899Z,1008.97
2016-05-18T02:49:40.854Z,1008.97
2016-05-18T02:50:40.796Z,1008.95
2016-05-18T02:51:40.766Z,1008.97
2016-05-18T02:52:40.721Z,1008.96
2016-05-18T02:53:40.663Z,1008.96
2016-05-18T02:54:40.602Z,1008.91
2016-05-18T02:55:40.558Z,1008.9
2016-05-18T02:56:40.514Z,1008.9
2016-05-18T02:57:40.470Z,1008.88
2016-05-18T02:58:40.426Z,1008.84
2016-05-18T02:59:40.365Z,1008.88
2016-05-18T03:00:40.525Z,1008.86
2016-05-18T03:01:40.262Z,1008.83
2016-05-18T03:02:40.233Z,1008.86
2016-05-18T03:03:40.580Z,1008.86
2016-05-18T03:04:40.129Z,1008.81
2016-05-18T03:05:40.086Z,1008.81
2016-05-18T03:06:40.025Z,1008.81
2016-05-18T03:07:43.028Z,1008.82
2016-05-18T03:08:42.936Z,1008.77
2016-05-18T03:09:39.892Z,1008.77
2016-05-18T03:10:39.833Z,1008.81
2016-05-18T03:11:39.788Z,1008.78
2016-05-18T03:12:42.761Z,1008.8
2016-05-18T03:13:42.716Z,1008.79
2016-05-18T03:14:39.843Z,1008.85
2016-05-18T03:15:42.612Z,1008.83
2016-05-18T03:16:39.552Z,1008.81
2016-05-18T03:17:39.696Z,1008.82
2016-05-18T03:18:39.463Z,1008.8
2016-05-18T03:19:42.436Z,1008.82
2016-05-18T03:20:42.376Z,1008.81
2016-05-18T03:21:42.378Z,1008.8
2016-05-18T03:22:39.287Z,1008.82
2016-05-18T03:23:42.429Z,1008.81
2016-05-18T03:24:39.168Z,1008.83
2016-05-18T03:25:39.123Z,1008.78
2016-05-18T03:26:42.079Z,1008.82
2016-05-18T03:27:39.020Z,1008.77
2016-05-18T03:28:39.178Z,1008.81
2016-05-18T03:29:38.931Z,1008.78
2016-05-18T03:30:38.871Z,1008.76
2016-05-18T03:31:39.031Z,1008.74
2016-05-18T03:32:41.783Z,1008.74
2016-05-18T03:33:38.739Z,1008.76
2016-05-18T03:34:38.694Z,1008.69
2016-05-18T03:35:38.634Z,1008.77
2016-05-18T03:36:38.606Z,1008.72
2016-05-18T03:37:38.546Z,1008.72
2016-05-18T03:38:38.487Z,1008.7
2016-05-18T03:39:47.472Z,1008.71
2016-05-18T03:40:41.397Z,1008.72
2016-05-18T03:41:38.353Z,1008.68
2016-05-18T03:42:38.310Z,1008.69
2016-05-18T03:43:38.250Z,1008.68
2016-05-18T03:44:38.206Z,1008.64
2016-05-18T03:45:38.161Z,1008.67
2016-05-18T03:46:41.117Z,1008.63
2016-05-18T03:47:41.074Z,1008.7
2016-05-18T03:48:38.013Z,1008.68
2016-05-18T03:49:40.985Z,1008.66
2016-05-18T03:50:37.910Z,1008.65
2016-05-18T03:51:37.865Z,1008.67
2016-05-18T03:52:40.837Z,1008.66
2016-05-18T03:53:40.917Z,1008.67
2016-05-18T03:54:40.749Z,1008.65
2016-05-18T03:55:40.673Z,1008.65
2016-05-18T03:56:37.629Z,1008.64
2016-05-18T03:57:37.585Z,1008.68
2016-05-18T03:58:37.728Z,1008.68
2016-05-18T03:59:37.481Z,1008.65
2016-05-18T04:00:37.436Z,1008.68
2016-05-18T04:01:37.579Z,1008.68
2016-05-18T04:02:37.332Z,1008.68
2016-05-18T04:03:37.288Z,1008.7
2016-05-18T04:04:37.228Z,1008.66
2016-05-18T04:05:37.200Z,1008.64
2016-05-18T04:06:37.140Z,1008.61
2016-05-18T04:07:40.095Z,1008.61
2016-05-18T04:08:40.317Z,1008.6
2016-05-18T04:09:36.992Z,1008.62
2016-05-18T04:10:36.947Z,1008.59
2016-05-18T04:11:36.903Z,1008.56
2016-05-18T04:12:39.859Z,1008.58
2016-05-18T04:13:39.800Z,1008.55
2016-05-18T04:14:39.755Z,1008.59
2016-05-18T04:15:39.727Z,1008.54
2016-05-18T04:16:36.885Z,1008.56
2016-05-18T04:17:36.607Z,1008.55
2016-05-18T04:18:36.563Z,1008.55
2016-05-18T04:19:39.721Z,1008.53
2016-05-18T04:20:39.475Z,1008.51
2016-05-18T04:21:39.430Z,1008.52
2016-05-18T04:22:39.386Z,1008.52
2016-05-18T04:23:36.529Z,1008.54
2016-05-18T04:24:36.282Z,1008.53
2016-05-18T04:25:36.222Z,1008.57
2016-05-18T04:26:36.178Z,1008.55
2016-05-18T04:27:36.135Z,1008.55
2016-05-18T04:28:36.074Z,1008.54
2016-05-18T04:29:36.029Z,1008.57
2016-05-18T04:30:35.985Z,1008.52
2016-05-18T04:31:35.941Z,1008.55
2016-05-18T04:32:35.881Z,1008.57
2016-05-18T04:33:35.837Z,1008.58
2016-05-18T04:34:38.793Z,1008.6
2016-05-18T04:35:38.749Z,1008.6
2016-05-18T04:36:35.909Z,1008.58
2016-05-18T04:37:35.645Z,1008.59
2016-05-18T04:38:35.601Z,1008.6
2016-05-18T04:39:35.542Z,1008.59
2016-05-18T04:40:35.497Z,1008.58
2016-05-18T04:41:35.453Z,1008.57
2016-05-18T04:42:38.627Z,1008.57
2016-05-18T04:43:35.349Z,1008.56
2016-05-18T04:44:35.305Z,1008.55
2016-05-18T04:45:38.261Z,1008.55
2016-05-18T04:46:38.216Z,1008.58
2016-05-18T04:47:35.156Z,1008.54
2016-05-18T04:48:35.112Z,1008.56
2016-05-18T04:49:35.068Z,1008.55
2016-05-18T04:50:35.008Z,1008.51
2016-05-18T04:51:34.964Z,1008.5
2016-05-18T04:52:34.920Z,1008.54
2016-05-18T04:53:37.891Z,1008.5
2016-05-18T04:54:34.816Z,1008.53
2016-05-18T04:55:34.771Z,1008.52
2016-05-18T04:56:34.727Z,1008.5
2016-05-18T04:57:34.682Z,1008.53
2016-05-18T04:58:37.640Z,1008.5
2016-05-18T04:59:34.595Z,1008.52
2016-05-18T05:00:34.535Z,1008.54
2016-05-18T05:01:34.694Z,1008.53
2016-05-18T05:02:34.431Z,1008.5
2016-05-18T05:03:34.387Z,1008.49
2016-05-18T05:04:37.342Z,1008.58
2016-05-18T05:05:34.283Z,1008.54
2016-05-18T05:06:37.254Z,1008.57
2016-05-18T05:07:37.209Z,1008.58
2016-05-18T05:08:34.181Z,1008.58
2016-05-18T05:09:34.091Z,1008.56
2016-05-18T05:10:34.046Z,1008.59
2016-05-18T05:11:34.002Z,1008.57
2016-05-18T05:12:33.942Z,1008.57
2016-05-18T05:13:33.914Z,1008.56
2016-05-18T05:14:33.853Z,1008.57
2016-05-18T05:15:34.013Z,1008.57
2016-05-18T05:16:33.750Z,1008.55
2016-05-18T05:17:33.909Z,1008.58
2016-05-18T05:18:33.662Z,1008.54
2016-05-18T05:19:33.617Z,1008.56
2016-05-18T05:20:36.573Z,1008.55
2016-05-18T05:21:33.513Z,1008.57
2016-05-18T05:22:33.469Z,1008.53
2016-05-18T05:23:33.410Z,1008.53
2016-05-18T05:24:33.569Z,1008.5
2016-05-18T05:25:36.337Z,1008.5
2016-05-18T05:26:36.277Z,1008.53
2016-05-18T05:27:36.232Z,1008.51
2016-05-18T05:28:33.174Z,1008.52
2016-05-18T05:29:33.332Z,1008.54
2016-05-18T05:30:33.084Z,1008.54
2016-05-18T05:31:36.040Z,1008.52
2016-05-18T05:32:35.996Z,1008.52
2016-05-18T05:33:35.952Z,1008.52
2016-05-18T05:34:32.892Z,1008.52
2016-05-18T05:35:32.832Z,1008.52
2016-05-18T05:36:32.787Z,1008.52
2016-05-18T05:37:32.745Z,1008.51
2016-05-18T05:38:35.715Z,1008.48
2016-05-18T05:39:35.656Z,1008.58
2016-05-18T05:40:35.612Z,1008.56
2016-05-18T05:41:32.551Z,1008.55
2016-05-18T05:42:32.508Z,1008.53
2016-05-18T05:43:32.447Z,1008.53
2016-05-18T05:44:35.419Z,1008.53
2016-05-18T05:45:32.359Z,1008.52
2016-05-18T05:46:35.314Z,1008.55
2016-05-18T05:47:35.286Z,1008.52
2016-05-18T05:48:32.211Z,1008.55
2016-05-18T05:49:32.166Z,1008.56
2016-05-18T05:50:32.122Z,1008.57
2016-05-18T05:51:35.078Z,1008.52
2016-05-18T05:52:35.018Z,1008.53
2016-05-18T05:53:31.974Z,1008.5
2016-05-18T05:54:34.930Z,1008.53
2016-05-18T05:55:31.871Z,1008.51
2016-05-18T05:56:31.842Z,1008.51
2016-05-18T05:57:31.783Z,1008.53
2016-05-18T05:58:31.738Z,1008.53
2016-05-18T05:59:31.678Z,1008.53
2016-05-18T06:00:31.634Z,1008.56
2016-05-18T06:01:31.590Z,1008.53
2016-05-18T06:02:31.530Z,1008.54
2016-05-18T06:03:31.548Z,1008.57
2016-05-18T06:04:31.770Z,1008.56
2016-05-18T06:05:31.523Z,1008.51
2016-05-18T06:06:31.962Z,1008.51
2016-05-18T06:07:31.293Z,1008.53
2016-05-18T06:08:31.812Z,1008.48
2016-05-18T06:09:31.392Z,1008.48
2016-05-18T06:10:34.192Z,1008.53
2016-05-18T06:11:31.101Z,1008.5
2016-05-18T06:12:31.056Z,1008.49
2016-05-18T06:13:31.122Z,1008.45
2016-05-18T06:14:33.983Z,1008.46
2016-05-18T06:15:30.924Z,1008.43
2016-05-18T06:16:30.865Z,1008.39
2016-05-18T06:17:34.102Z,1008.41
2016-05-18T06:18:33.775Z,1008.35
2016-05-18T06:19:30.716Z,1008.34
2016-05-18T06:20:30.672Z,1008.3
2016-05-18T06:21:33.628Z,1008.29
2016-05-18T06:22:30.630Z,1008.29
2016-05-18T06:23:30.539Z,1008.33
2016-05-18T06:24:30.480Z,1008.31
2016-05-18T06:25:30.513Z,1008.29
2016-05-18T06:26:32.001Z,1008.33
2016-05-18T06:27:30.347Z,1008.37
2016-05-18T06:28:30.334Z,1008.35
2016-05-18T06:29:30.243Z,1008.33
2016-05-18T06:30:30.199Z,1008.4
2016-05-18T06:31:30.154Z,1008.39
2016-05-18T06:32:30.095Z,1008.44
2016-05-18T06:33:30.098Z,1008.43
2016-05-18T06:34:33.023Z,1008.42
2016-05-18T06:35:29.994Z,1008.45
2016-05-18T06:36:32.918Z,1008.43
2016-05-18T06:37:29.874Z,1008.44
2016-05-18T06:38:30.017Z,1008.44
2016-05-18T06:39:30.114Z,1008.41
2016-05-18T06:40:29.710Z,1008.46
2016-05-18T06:41:32.667Z,1008.42
2016-05-18T06:42:29.622Z,1008.4
2016-05-18T06:43:32.592Z,1008.42
2016-05-18T06:44:29.517Z,1008.4
2016-05-18T06:45:29.473Z,1008.44
2016-05-18T06:46:29.445Z,1008.39
2016-05-18T06:47:29.400Z,1008.42
2016-05-18T06:48:29.342Z,1008.39
2016-05-18T06:49:29.297Z,1008.41
2016-05-18T06:50:29.237Z,1008.4
2016-05-18T06:51:29.194Z,1008.4
2016-05-18T06:52:29.149Z,1008.4
2016-05-18T06:53:29.105Z,1008.4
2016-05-18T06:54:29.061Z,1008.38
2016-05-18T06:55:29.000Z,1008.35
2016-05-18T06:56:29.003Z,1008.4
2016-05-18T06:57:28.913Z,1008.34
2016-05-18T06:58:28.852Z,1008.39
2016-05-18T06:59:28.808Z,1008.36
2016-05-18T07:00:28.764Z,1008.38
2016-05-18T07:01:28.735Z,1008.41
2016-05-18T07:02:31.676Z,1008.38
2016-05-18T07:03:28.632Z,1008.39
2016-05-18T07:04:28.587Z,1008.38
2016-05-18T07:05:28.527Z,1008.41
2016-05-18T07:06:28.484Z,1008.37
2016-05-18T07:07:28.439Z,1008.35
2016-05-18T07:08:28.395Z,1008.34
2016-05-18T07:09:28.335Z,1008.29
2016-05-18T07:10:31.307Z,1008.27
2016-05-18T07:11:31.247Z,1008.31
2016-05-18T07:12:28.203Z,1008.28
2016-05-18T07:13:28.189Z,1008.27
2016-05-18T07:14:28.115Z,1008.29
2016-05-18T07:15:28.070Z,1008.26
2016-05-18T07:16:31.026Z,1008.23
2016-05-18T07:17:27.966Z,1008.23
2016-05-18T07:18:27.922Z,1008.22
2016-05-18T07:19:30.878Z,1008.23
2016-05-18T07:20:30.833Z,1008.21
2016-05-18T07:21:27.977Z,1008.16
2016-05-18T07:22:27.730Z,1008.17
2016-05-18T07:23:27.685Z,1008.19
2016-05-18T07:24:27.625Z,1008.14
2016-05-18T07:25:27.800Z,1008.17
2016-05-18T07:26:30.538Z,1008.15
2016-05-18T07:27:27.477Z,1008.13
2016-05-18T07:28:27.949Z,1008.16
2016-05-18T07:29:27.405Z,1008.15
2016-05-18T07:30:27.361Z,1008.17
2016-05-18T07:31:27.302Z,1008.12
2016-05-18T07:32:27.272Z,1008.12
2016-05-18T07:33:27.212Z,1008.14
2016-05-18T07:34:27.168Z,1008.1
2016-05-18T07:35:27.108Z,1008.12
2016-05-18T07:36:27.065Z,1008.12
2016-05-18T07:37:30.035Z,1008.13
2016-05-18T07:38:29.976Z,1008.19
2016-05-18T07:39:26.962Z,1008.18
2016-05-18T07:40:26.888Z,1008.26
2016-05-18T07:41:26.843Z,1008.22
2016-05-18T07:42:26.784Z,1008.23
2016-05-18T07:43:26.739Z,1008.2
2016-05-18T07:44:26.711Z,1008.16
2016-05-18T07:45:26.651Z,1008.12
2016-05-18T07:46:26.810Z,1008.08
2016-05-18T07:47:26.562Z,1008.06
2016-05-18T07:48:26.518Z,1008.08
2016-05-18T07:49:26.474Z,1008.04
2016-05-18T07:50:26.430Z,1008.07
2016-05-18T07:51:26.386Z,1008.08
2016-05-18T07:52:29.325Z,1008.03
2016-05-18T07:53:29.281Z,1008.02
2016-05-18T07:54:26.238Z,1008.03
2016-05-18T07:55:26.178Z,1007.94
2016-05-18T07:56:26.164Z,1007.98
2016-05-18T07:57:26.105Z,1007.97
2016-05-18T07:58:26.044Z,1007.95
2016-05-18T07:59:26.017Z,1007.87
2016-05-18T08:00:25.958Z,1007.88
2016-05-18T08:01:25.913Z,1007.92
2016-05-18T08:02:25.853Z,1007.87
2016-05-18T08:03:28.808Z,1007.88
2016-05-18T08:04:25.765Z,1007.84
2016-05-18T08:05:25.721Z,1007.85
2016-05-18T08:06:25.676Z,1007.9
2016-05-18T08:07:25.632Z,1007.84
2016-05-18T08:08:25.979Z,1007.88
2016-05-18T08:09:25.529Z,1007.87
2016-05-18T08:10:25.499Z,1007.86
2016-05-18T08:11:25.440Z,1007.86
2016-05-18T08:12:25.395Z,1007.85
2016-05-18T08:13:25.351Z,1007.83
2016-05-18T08:14:25.307Z,1007.82
2016-05-18T08:15:25.262Z,1007.84
2016-05-18T08:16:34.297Z,1007.86
2016-05-18T08:17:25.174Z,1007.86
2016-05-18T08:18:25.380Z,1007.83
2016-05-18T08:19:25.070Z,1007.83
2016-05-18T08:20:25.042Z,1007.82
2016-05-18T08:21:24.982Z,1007.76
2016-05-18T08:22:27.985Z,1007.76
2016-05-18T08:23:24.956Z,1007.78
2016-05-18T08:24:24.850Z,1007.76
2016-05-18T08:25:25.009Z,1007.73
2016-05-18T08:26:24.761Z,1007.75
2016-05-18T08:27:24.727Z,1007.79
2016-05-18T08:28:24.711Z,1007.77
2016-05-18T08:29:24.708Z,1007.75
2016-05-18T08:30:24.706Z,1007.76
2016-05-18T08:31:24.704Z,1007.75
2016-05-18T08:32:24.695Z,1007.72
2016-05-18T08:33:24.648Z,1007.75
2016-05-18T08:34:24.619Z,1007.7
2016-05-18T08:35:24.592Z,1007.65
2016-05-18T08:36:24.546Z,1007.66
2016-05-18T08:37:24.534Z,1007.62
2016-05-18T08:38:24.908Z,1007.62
2016-05-18T08:39:24.447Z,1007.6
2016-05-18T08:40:24.409Z,1007.66
2016-05-18T08:41:24.385Z,1007.6
2016-05-18T08:42:24.534Z,1007.59
2016-05-18T08:43:24.292Z,1007.6
2016-05-18T08:44:24.250Z,1007.53
2016-05-18T08:45:24.427Z,1007.51
2016-05-18T08:46:24.166Z,1007.52
2016-05-18T08:47:24.109Z,1007.48
2016-05-18T08:48:24.066Z,1007.42
2016-05-18T08:49:24.039Z,1007.43
2016-05-18T08:50:26.998Z,1007.45
2016-05-18T08:51:23.935Z,1007.45
2016-05-18T08:52:23.892Z,1007.42
2016-05-18T08:53:23.849Z,1007.44
2016-05-18T08:54:23.805Z,1007.41
2016-05-18T08:55:23.761Z,1007.4
2016-05-18T08:56:23.717Z,1007.41
2016-05-18T08:57:23.875Z,1007.4
2016-05-18T08:58:23.628Z,1007.39
2016-05-18T08:59:23.583Z,1007.37
2016-05-18T09:00:23.524Z,1007.36
2016-05-18T09:01:23.480Z,1007.36
2016-05-18T09:02:23.451Z,1007.31
2016-05-18T09:03:23.438Z,1007.35
2016-05-18T09:04:23.347Z,1007.35
2016-05-18T09:05:23.303Z,1007.31
2016-05-18T09:06:23.290Z,1007.3
2016-05-18T09:07:23.215Z,1007.28
2016-05-18T09:08:23.170Z,1007.31
2016-05-18T09:09:23.126Z,1007.33
2016-05-18T09:10:23.082Z,1007.29
2016-05-18T09:11:23.038Z,1007.27
2016-05-18T09:12:22.993Z,1007.22
2016-05-18T09:13:22.949Z,1007.23
2016-05-18T09:14:22.906Z,1007.19
2016-05-18T09:15:22.861Z,1007.22
2016-05-18T09:16:25.801Z,1007.17
2016-05-18T09:17:22.757Z,1007.14
2016-05-18T09:18:23.120Z,1007.19
2016-05-18T09:19:22.669Z,1007.15
2016-05-18T09:20:22.828Z,1007.12
2016-05-18T09:21:22.580Z,1007.13
2016-05-18T09:22:22.536Z,1007.12
2016-05-18T09:23:31.495Z,1007.1
2016-05-18T09:24:25.448Z,1007.03
2016-05-18T09:25:22.403Z,1007.17
2016-05-18T09:26:22.359Z,1007.07
2016-05-18T09:27:25.316Z,1007.05
2016-05-18T09:28:25.271Z,1006.98
2016-05-18T09:29:22.227Z,1007
2016-05-18T09:30:22.182Z,1007.01
2016-05-18T09:31:25.138Z,1007.02
2016-05-18T09:32:22.079Z,1007.02
2016-05-18T09:33:25.253Z,1007.06
2016-05-18T09:34:22.005Z,1007.06
2016-05-18T09:35:21.946Z,1007.02
2016-05-18T09:36:21.902Z,1006.99
2016-05-18T09:37:21.857Z,1007.03
2016-05-18T09:38:22.095Z,1006.96
2016-05-18T09:39:21.769Z,1006.95
2016-05-18T09:40:21.726Z,1006.98
2016-05-18T09:41:24.696Z,1006.89
2016-05-18T09:42:21.637Z,1006.9
2016-05-18T09:43:24.592Z,1006.94
2016-05-18T09:44:24.548Z,1006.85
2016-05-18T09:45:21.504Z,1006.84
2016-05-18T09:46:24.476Z,1006.79
2016-05-18T09:47:21.415Z,1006.76
2016-05-18T09:48:21.372Z,1006.78
2016-05-18T09:49:21.312Z,1006.81
2016-05-18T09:50:21.283Z,1006.86
2016-05-18T09:51:21.442Z,1006.77
2016-05-18T09:52:21.179Z,1006.82
2016-05-18T09:53:21.151Z,1006.77
2016-05-18T09:54:21.169Z,1006.81
2016-05-18T09:55:24.078Z,1006.79
2016-05-18T09:56:21.003Z,1006.8
2016-05-18T09:57:20.959Z,1006.72
2016-05-18T09:58:20.977Z,1006.78
2016-05-18T09:59:20.917Z,1006.79
2016-05-18T10:00:20.825Z,1006.75
2016-05-18T10:01:21.000Z,1006.77
2016-05-18T10:02:20.738Z,1006.8
2016-05-18T10:03:20.709Z,1006.78
2016-05-18T10:04:20.649Z,1006.71
2016-05-18T10:05:20.605Z,1006.74
2016-05-18T10:06:20.577Z,1006.73
2016-05-18T10:07:20.532Z,1006.7
2016-05-18T10:08:20.488Z,1006.74
2016-05-18T10:09:20.429Z,1006.78
2016-05-18T10:10:20.384Z,1006.72
2016-05-18T10:11:20.340Z,1006.66
2016-05-18T10:12:20.296Z,1006.71
2016-05-18T10:13:20.251Z,1006.66
2016-05-18T10:14:20.192Z,1006.69
2016-05-18T10:15:20.163Z,1006.76
2016-05-18T10:17:20.059Z,1006.61
2016-05-18T10:18:20.031Z,1006.6
2016-05-18T10:19:19.987Z,1006.61
2016-05-18T10:20:20.129Z,1006.6
2016-05-18T10:21:19.882Z,1006.54
2016-05-18T10:22:22.854Z,1006.61
2016-05-18T10:23:19.997Z,1006.57
2016-05-18T10:24:19.750Z,1006.59
2016-05-18T10:25:22.706Z,1006.54
2016-05-18T10:26:19.661Z,1006.65
2016-05-18T10:27:22.633Z,1006.54
2016-05-18T10:28:19.620Z,1006.51
2016-05-18T10:29:19.732Z,1006.47
2016-05-18T10:30:19.469Z,1006.55
2016-05-18T10:31:19.425Z,1006.48
2016-05-18T10:32:22.381Z,1006.54
2016-05-18T10:33:19.352Z,1006.51
2016-05-18T10:34:19.839Z,1006.52
2016-05-18T10:35:19.264Z,1006.46
2016-05-18T10:36:22.220Z,1006.43
2016-05-18T10:37:19.363Z,1006.4
2016-05-18T10:38:19.521Z,1006.37
2016-05-18T10:39:19.102Z,1006.37
2016-05-18T10:40:19.012Z,1006.3
2016-05-18T10:41:18.983Z,1006.32
2016-05-18T10:42:18.939Z,1006.31
2016-05-18T10:43:18.879Z,1006.34
2016-05-18T10:44:18.835Z,1006.3
2016-05-18T10:45:18.807Z,1006.27
2016-05-18T10:46:18.746Z,1006.32
2016-05-18T10:47:18.702Z,1006.28
2016-05-18T10:48:18.659Z,1006.17
2016-05-18T10:49:18.615Z,1006.13
2016-05-18T10:50:21.570Z,1006.14
2016-05-18T10:51:18.509Z,1006.15
2016-05-18T10:52:18.466Z,1006.12
2016-05-18T10:53:18.437Z,1006.15
2016-05-18T10:54:18.378Z,1006.13
2016-05-18T10:55:18.412Z,1006.15
2016-05-18T10:56:18.305Z,1006.18
2016-05-18T10:57:18.245Z,1006.17
2016-05-18T10:58:18.201Z,1006.1
2016-05-18T10:59:18.172Z,1006.12
2016-05-18T11:00:18.112Z,1006.17
2016-05-18T11:01:18.084Z,1006.14
2016-05-18T11:02:21.259Z,1006.13
2016-05-18T11:03:17.995Z,1006.18
2016-05-18T11:04:17.952Z,1006.18
2016-05-18T11:05:17.922Z,1006.17
2016-05-18T11:06:21.066Z,1006.13
2016-05-18T11:07:17.819Z,1006.17
2016-05-18T11:08:17.775Z,1006.14
2016-05-18T11:09:17.730Z,1006.12
2016-05-18T11:10:20.873Z,1006.03
2016-05-18T11:11:17.642Z,1006.04
2016-05-18T11:12:17.582Z,1006.06
2016-05-18T11:13:17.585Z,1006
2016-05-18T11:14:20.510Z,1006.02
2016-05-18T11:15:20.668Z,1006.06
2016-05-18T11:16:17.420Z,1006
2016-05-18T11:17:17.393Z,1006.01
2016-05-18T11:18:17.317Z,1006.04
2016-05-18T11:19:17.288Z,1005.99
2016-05-18T11:20:17.228Z,1006.02
2016-05-18T11:21:17.200Z,1006.01
2016-05-18T11:22:17.140Z,1006
2016-05-18T11:23:17.112Z,1006.03
2016-05-18T11:24:17.051Z,1006.02
2016-05-18T11:25:17.008Z,1005.96
2016-05-18T11:26:16.964Z,1005.97
2016-05-18T11:27:16.919Z,1005.95
2016-05-18T11:28:16.876Z,1005.95
2016-05-18T11:29:16.831Z,1005.93
2016-05-18T11:30:16.786Z,1005.91
2016-05-18T11:31:16.774Z,1005.93
2016-05-18T11:32:16.698Z,1005.91
2016-05-18T11:33:16.654Z,1005.88
2016-05-18T11:34:16.610Z,1005.87
2016-05-18T11:35:16.566Z,1005.84
2016-05-18T11:36:16.522Z,1005.84
2016-05-18T11:37:16.461Z,1005.88
2016-05-18T11:38:16.980Z,1005.84
2016-05-18T11:39:16.389Z,1005.8
2016-05-18T11:40:19.329Z,1005.75
2016-05-18T11:41:16.301Z,1005.77
2016-05-18T11:42:16.257Z,1005.74
2016-05-18T11:43:16.197Z,1005.74
2016-05-18T11:44:16.152Z,1005.71
2016-05-18T11:45:16.108Z,1005.73
2016-05-18T11:46:16.064Z,1005.77
2016-05-18T11:47:16.035Z,1005.69
2016-05-18T11:48:15.960Z,1005.75
2016-05-18T11:49:15.931Z,1005.69
2016-05-18T11:50:15.888Z,1005.72
2016-05-18T11:51:15.843Z,1005.73
2016-05-18T11:52:15.783Z,1005.76
2016-05-18T11:53:16.240Z,1005.72
2016-05-18T11:54:15.695Z,1005.7
2016-05-18T11:55:15.651Z,1005.67
2016-05-18T11:56:15.653Z,1005.64
2016-05-18T11:57:15.578Z,1005.62
2016-05-18T11:58:18.518Z,1005.57
2016-05-18T11:59:15.474Z,1005.6
2016-05-18T12:00:15.445Z,1005.56
2016-05-18T12:01:15.401Z,1005.62
2016-05-18T12:02:15.341Z,1005.55
2016-05-18T12:03:15.703Z,1005.59
2016-05-18T12:04:15.238Z,1005.49
2016-05-18T12:05:15.209Z,1005.53
2016-05-18T12:06:15.164Z,1005.55
2016-05-18T12:07:15.183Z,1005.56
2016-05-18T12:08:15.108Z,1005.52
2016-05-18T12:09:15.047Z,1005.54